createdAt,value
2023-03-27T00:01:34.453Z,9.15
2023-03-27T00:04:02.585Z,8.40
2023-03-27T00:06:34.640Z,11.07
2023-03-27T00:09:04.719Z,11.02
2023-03-27T00:11:33.330Z,9.38
2023-03-27T00:14:01.598Z,10.95
2023-03-27T00:16:30.658Z,10.43
2023-03-27T00:19:00.573Z,11.15
2023-03-27T00:21:29.239Z,10.05
2023-03-27T00:23:57.712Z,11.10
2023-03-27T00:26:25.656Z,9.85
2023-03-27T00:28:54.938Z,9.65
2023-03-27T00:31:23.037Z,10.77
2023-03-27T00:33:51.680Z,9.82
2023-03-27T00:36:19.888Z,10.13
2023-03-27T00:38:49.511Z,9.45
2023-03-27T00:41:18.238Z,9.70
2023-03-27T00:43:49.570Z,9.75
2023-03-27T00:46:28.179Z,8.80
2023-03-27T00:48:58.476Z,10.10
2023-03-27T00:51:27.956Z,7.97
2023-03-27T00:53:57.077Z,7.90
2023-03-27T00:56:25.503Z,8.95
2023-03-27T00:58:58.601Z,10.50
2023-03-27T01:01:29.692Z,10.35
2023-03-27T01:04:04.908Z,10.15
2023-03-27T01:06:33.600Z,8.90
2023-03-27T01:09:02.512Z,7.78
2023-03-27T01:12:01.853Z,7.65
2023-03-27T01:15:16.044Z,9.13
2023-03-27T01:18:06.496Z,8.57
2023-03-27T01:20:42.700Z,8.20
2023-03-27T01:23:35.896Z,8.20
2023-03-27T01:26:41.508Z,9.52
2023-03-27T01:29:41.331Z,9.38
2023-03-27T01:32:50.095Z,7.60
2023-03-27T01:35:37.190Z,8.48
2023-03-27T01:38:29.038Z,8.95
2023-03-27T01:41:12.319Z,9.50
2023-03-27T01:44:08.530Z,8.48
2023-03-27T01:46:44.371Z,8.48
2023-03-27T01:49:20.974Z,8.82
2023-03-27T01:51:55.628Z,7.88
2023-03-27T01:54:36.423Z,7.95
2023-03-27T01:57:18.006Z,7.97
2023-03-27T01:59:51.690Z,7.80
2023-03-27T02:02:25.980Z,8.45
2023-03-27T02:05:02.044Z,8.70
2023-03-27T02:07:35.922Z,10.02
2023-03-27T02:10:10.327Z,10.43
2023-03-27T02:12:48.384Z,10.93
2023-03-27T02:15:25.279Z,9.77
2023-03-27T02:18:08.166Z,10.90
2023-03-27T02:20:39.187Z,11.18
2023-03-27T02:23:08.666Z,10.45
2023-03-27T02:25:40.327Z,12.07
2023-03-27T02:28:33.552Z,11.85
2023-03-27T02:31:32.181Z,11.05
2023-03-27T02:34:33.925Z,10.93
2023-03-27T02:37:16.627Z,10.38
2023-03-27T02:40:40.314Z,10.65
2023-03-27T02:44:02.106Z,12.88
2023-03-27T02:46:56.194Z,10.70
2023-03-27T02:49:31.772Z,10.02
2023-03-27T02:52:35.776Z,9.73
2023-03-27T02:55:12.885Z,10.48
2023-03-27T02:57:51.741Z,10.57
2023-03-27T03:00:37.571Z,9.55
2023-03-27T03:03:28.092Z,11.10
2023-03-27T03:06:07.523Z,10.23
2023-03-27T03:08:39.081Z,9.45
2023-03-27T03:11:13.600Z,8.52
2023-03-27T03:13:42.219Z,9.05
2023-03-27T03:16:11.537Z,9.38
2023-03-27T03:18:41.268Z,9.88
2023-03-27T03:21:09.725Z,11.13
2023-03-27T03:23:39.344Z,11.02
2023-03-27T03:26:08.271Z,11.32
2023-03-27T03:28:59.891Z,11.45
2023-03-27T03:31:43.629Z,11.43
2023-03-27T03:34:16.284Z,10.55
2023-03-27T03:36:49.803Z,10.55
2023-03-27T03:39:23.422Z,10.43
2023-03-27T03:41:52.100Z,10.45
2023-03-27T03:44:20.772Z,11.15
2023-03-27T03:46:49.231Z,10.52
2023-03-27T03:49:22.219Z,10.80
2023-03-27T03:52:04.535Z,11.77
2023-03-27T03:57:03.510Z,10.27
2023-03-27T03:59:34.147Z,11.35
2023-03-27T04:02:29.533Z,9.15
2023-03-27T04:05:08.643Z,10.45
2023-03-27T04:07:40.522Z,9.20
2023-03-27T04:10:20.742Z,10.38
2023-03-27T04:12:50.890Z,11.05
2023-03-27T04:15:31.239Z,10.93
2023-03-27T04:18:19.912Z,10.35
2023-03-27T04:20:50.001Z,10.70
2023-03-27T04:23:20.093Z,9.60
2023-03-27T04:25:49.431Z,11.65
2023-03-27T04:28:25.301Z,10.68
2023-03-27T04:31:08.382Z,13.30
2023-03-27T04:34:05.946Z,13.35
2023-03-27T04:37:07.372Z,12.80
2023-03-27T04:39:43.016Z,12.82
2023-03-27T04:42:12.149Z,11.68
2023-03-27T04:44:41.828Z,12.77
2023-03-27T04:47:10.187Z,12.10
2023-03-27T04:49:42.500Z,10.40
2023-03-27T04:52:37.198Z,13.07
2023-03-27T04:55:06.278Z,12.55
2023-03-27T04:57:35.326Z,13.02
2023-03-27T05:00:15.926Z,12.02
2023-03-27T05:02:48.986Z,12.05
2023-03-27T05:05:28.504Z,10.80
2023-03-27T05:07:57.112Z,11.02
2023-03-27T05:10:27.346Z,10.77
2023-03-27T05:12:58.389Z,10.68
2023-03-27T05:15:27.807Z,11.07
2023-03-27T05:17:57.329Z,11.48
2023-03-27T05:20:27.751Z,13.10
2023-03-27T05:22:56.820Z,12.50
2023-03-27T05:25:33.980Z,11.50
2023-03-27T05:28:05.865Z,10.55
2023-03-27T05:30:36.573Z,10.35
2023-03-27T05:33:34.044Z,8.57
2023-03-27T05:36:03.519Z,8.05
2023-03-27T05:38:33.272Z,9.55
2023-03-27T05:41:16.972Z,7.65
2023-03-27T05:43:51.301Z,8.88
2023-03-27T05:46:21.644Z,6.85
2023-03-27T05:49:09.991Z,7.70
2023-03-27T05:51:38.706Z,6.95
2023-03-27T05:54:17.923Z,8.23
2023-03-27T05:57:08.996Z,9.50
2023-03-27T05:59:39.948Z,9.40
2023-03-27T06:02:21.276Z,9.25
2023-03-27T06:05:11.019Z,10.20
2023-03-27T06:07:43.173Z,7.95
2023-03-27T06:10:15.109Z,7.90
2023-03-27T06:12:43.849Z,7.78
2023-03-27T06:15:26.566Z,8.25
2023-03-27T06:18:10.153Z,9.20
2023-03-27T06:20:39.697Z,9.02
2023-03-27T06:23:09.564Z,9.55
2023-03-27T06:25:39.958Z,9.43
2023-03-27T06:28:11.146Z,9.80
2023-03-27T06:30:46.696Z,9.30
2023-03-27T06:33:35.213Z,7.88
2023-03-27T06:36:08.725Z,6.28
2023-03-27T06:38:38.296Z,7.40
2023-03-27T06:41:07.586Z,7.50
2023-03-27T06:44:08.458Z,7.90
2023-03-27T06:46:53.056Z,9.02
2023-03-27T06:49:30.844Z,8.93
2023-03-27T06:52:02.016Z,8.77
2023-03-27T06:54:31.150Z,9.82
2023-03-27T06:57:01.810Z,10.20
2023-03-27T06:59:39.062Z,9.77
2023-03-27T07:02:09.611Z,9.45
2023-03-27T07:05:04.238Z,8.10
2023-03-27T07:07:44.069Z,9.45
2023-03-27T07:10:12.877Z,9.48
2023-03-27T07:12:49.323Z,9.88
2023-03-27T07:15:21.403Z,12.20
2023-03-27T07:17:59.527Z,11.25
2023-03-27T07:20:31.016Z,10.52
2023-03-27T07:23:05.823Z,8.18
2023-03-27T07:25:59.649Z,8.85
2023-03-27T07:28:50.547Z,6.75
2023-03-27T07:31:34.970Z,6.90
2023-03-27T07:34:08.936Z,6.43
2023-03-27T07:37:09.590Z,6.32
2023-03-27T07:39:42.032Z,6.78
2023-03-27T07:42:10.196Z,4.80
2023-03-27T07:44:52.325Z,4.43
2023-03-27T07:47:21.306Z,4.13
2023-03-27T07:49:49.915Z,5.00
2023-03-27T07:52:23.178Z,4.55
2023-03-27T07:54:58.031Z,4.18
2023-03-27T07:58:00.936Z,6.28
2023-03-27T08:00:35.576Z,7.68
2023-03-27T08:03:17.746Z,11.27
2023-03-27T08:05:58.234Z,8.15
2023-03-27T08:08:29.595Z,6.60
2023-03-27T08:11:02.499Z,4.45
2023-03-27T08:13:41.398Z,4.00
2023-03-27T08:16:14.733Z,3.50
2023-03-27T08:21:12.970Z,2.75
2023-03-27T08:23:42.032Z,4.63
2023-03-27T08:26:48.180Z,2.25
2023-03-27T08:29:16.705Z,2.47
2023-03-27T08:31:48.415Z,2.35
2023-03-27T08:34:17.807Z,4.95
2023-03-27T08:36:48.883Z,6.57
2023-03-27T08:39:18.311Z,8.35
2023-03-27T08:41:57.752Z,7.15
2023-03-27T08:44:34.812Z,8.63
2023-03-27T08:47:32.771Z,4.90
2023-03-27T08:50:42.619Z,3.33
2023-03-27T08:53:51.940Z,2.58
2023-03-27T08:56:30.557Z,2.60
2023-03-27T08:58:59.078Z,1.98
2023-03-27T09:01:50.256Z,2.00
2023-03-27T09:04:52.846Z,1.73
2023-03-27T09:07:41.015Z,3.80
2023-03-27T09:10:28.677Z,3.67
2023-03-27T09:13:16.537Z,4.35
2023-03-27T09:16:03.286Z,2.10
2023-03-27T09:18:44.516Z,5.38
2023-03-27T09:21:24.075Z,2.50
2023-03-27T09:23:55.466Z,2.25
2023-03-27T09:26:43.673Z,1.60
2023-03-27T09:29:40.104Z,2.05
2023-03-27T09:32:33.631Z,4.03
2023-03-27T09:35:04.921Z,1.88
2023-03-27T09:37:36.900Z,1.42
2023-03-27T09:40:13.909Z,1.50
2023-03-27T09:42:44.303Z,2.30
2023-03-27T09:45:13.941Z,3.75
2023-03-27T09:48:02.627Z,1.98
2023-03-27T09:50:49.341Z,2.03
2023-03-27T09:53:33.604Z,1.70
2023-03-27T09:56:17.089Z,1.70
2023-03-27T09:58:51.558Z,3.17
2023-03-27T10:01:34.791Z,2.20
2023-03-27T10:04:23.164Z,1.77
2023-03-27T10:07:01.965Z,2.40
2023-03-27T10:10:17.842Z,1.75
2023-03-27T10:13:20.970Z,1.33
2023-03-27T10:16:06.211Z,1.35
2023-03-27T10:18:46.784Z,1.98
2023-03-27T10:21:29.302Z,2.65
2023-03-27T10:24:06.994Z,2.10
2023-03-27T10:27:24.980Z,1.90
2023-03-27T10:30:28.588Z,2.47
2023-03-27T10:33:07.791Z,2.13
2023-03-27T10:35:59.346Z,1.70
2023-03-27T10:38:33.650Z,3.63
2023-03-27T10:41:08.043Z,2.55
2023-03-27T10:43:47.048Z,2.15
2023-03-27T10:46:21.904Z,1.92
2023-03-27T10:48:59.814Z,2.67
2023-03-27T10:51:43.117Z,2.13
2023-03-27T10:54:32.894Z,2.38
2023-03-27T10:57:02.794Z,1.92
2023-03-27T10:59:42.071Z,2.17
2023-03-27T11:03:05.420Z,2.05
2023-03-27T11:05:48.481Z,2.13
2023-03-27T11:08:34.437Z,2.75
2023-03-27T11:11:27.591Z,2.80
2023-03-27T11:14:02.606Z,2.03
2023-03-27T11:16:40.023Z,2.20
2023-03-27T11:19:52.998Z,2.10
2023-03-27T11:22:48.940Z,2.83
2023-03-27T11:25:46.970Z,3.03
2023-03-27T11:28:44.248Z,2.97
2023-03-27T11:31:40.292Z,3.03
2023-03-27T11:34:29.870Z,2.08
2023-03-27T11:37:34.141Z,2.00
2023-03-27T11:40:20.494Z,1.60
2023-03-27T11:42:52.597Z,2.67
2023-03-27T11:45:34.847Z,3.05
2023-03-27T11:48:28.448Z,2.55
2023-03-27T11:51:29.171Z,2.58
2023-03-27T11:57:02.209Z,2.03
2023-03-27T12:00:16.654Z,3.25
2023-03-27T12:02:55.530Z,2.83
2023-03-27T12:05:56.913Z,2.42
2023-03-27T12:08:45.470Z,2.42
2023-03-27T12:11:14.814Z,1.93
2023-03-27T12:14:23.937Z,2.55
2023-03-27T12:16:57.805Z,2.70
2023-03-27T12:20:16.120Z,2.15
2023-03-27T12:23:03.544Z,2.90
2023-03-27T12:26:07.704Z,2.88
2023-03-27T12:29:32.596Z,2.50
2023-03-27T12:32:08.185Z,2.05
2023-03-27T12:34:53.405Z,2.00
2023-03-27T12:37:39.009Z,1.77
2023-03-27T12:40:42.101Z,2.10
2023-03-27T12:43:33.938Z,2.08
2023-03-27T12:46:24.983Z,2.20
2023-03-27T12:49:13.408Z,2.67
2023-03-27T12:51:58.342Z,3.00
2023-03-27T12:55:18.630Z,3.03
2023-03-27T12:58:11.698Z,3.92
2023-03-27T13:01:03.385Z,3.38
2023-03-27T13:04:16.244Z,2.92
2023-03-27T13:07:06.141Z,2.42
2023-03-27T13:10:21.857Z,2.20
2023-03-27T13:12:55.071Z,2.10
2023-03-27T13:15:47.690Z,1.95
2023-03-27T13:18:52.201Z,2.60
2023-03-27T13:21:48.180Z,2.30
2023-03-27T13:24:51.319Z,1.92
2023-03-27T13:28:02.777Z,2.05
2023-03-27T13:30:44.350Z,1.80
2023-03-27T13:33:45.397Z,2.20
2023-03-27T13:36:21.798Z,1.75
2023-03-27T13:38:55.248Z,1.90
2023-03-27T13:41:52.600Z,1.55
2023-03-27T13:44:52.187Z,1.88
2023-03-27T13:47:35.981Z,1.75
2023-03-27T13:50:25.975Z,1.80
2023-03-27T13:53:23.870Z,1.50
2023-03-27T13:56:14.980Z,2.42
2023-03-27T13:59:33.395Z,1.50
2023-03-27T14:02:16.520Z,1.42
2023-03-27T14:05:39.857Z,1.00
2023-03-27T14:08:23.238Z,1.27
2023-03-27T14:11:39.649Z,1.50
2023-03-27T14:14:32.887Z,1.30
2023-03-27T14:17:28.987Z,2.70
2023-03-27T14:20:20.382Z,1.50
2023-03-27T14:22:50.432Z,1.48
2023-03-27T14:25:30.505Z,1.30
2023-03-27T14:28:29.668Z,1.40
2023-03-27T14:31:03.895Z,1.50
2023-03-27T14:34:01.218Z,1.30
2023-03-27T14:36:34.291Z,1.45
2023-03-27T14:39:22.556Z,1.60
2023-03-27T14:42:00.094Z,1.55
2023-03-27T14:44:33.605Z,1.50
2023-03-27T14:47:13.784Z,1.52
2023-03-27T14:49:49.264Z,1.92
2023-03-27T14:52:35.402Z,1.40
2023-03-27T14:55:34.614Z,1.58
2023-03-27T14:58:24.915Z,1.50
2023-03-27T15:00:59.471Z,1.85
2023-03-27T15:03:35.632Z,1.48
2023-03-27T15:06:17.304Z,1.90
2023-03-27T15:08:55.775Z,1.63
2023-03-27T15:11:49.186Z,1.60
2023-03-27T15:14:32.435Z,1.50
2023-03-27T15:17:15.899Z,1.50
2023-03-27T15:19:49.095Z,1.33
2023-03-27T15:23:10.168Z,1.85
2023-03-27T15:25:56.600Z,1.65
2023-03-27T15:28:37.048Z,1.60
2023-03-27T15:31:07.907Z,2.05
2023-03-27T15:33:52.775Z,2.20
2023-03-27T15:36:28.698Z,1.70
2023-03-27T15:39:01.225Z,1.90
2023-03-27T15:41:40.960Z,2.05
2023-03-27T15:44:17.048Z,2.03
2023-03-27T15:46:55.907Z,1.73
2023-03-27T15:49:34.769Z,2.28
2023-03-27T15:52:28.702Z,1.77
2023-03-27T15:54:58.257Z,2.20
2023-03-27T15:57:31.444Z,1.90
2023-03-27T16:00:10.363Z,2.00
2023-03-27T16:02:41.927Z,2.15
2023-03-27T16:05:17.760Z,2.15
2023-03-27T16:07:48.533Z,1.88
2023-03-27T16:10:32.742Z,2.33
2023-03-27T16:13:03.377Z,2.13
2023-03-27T16:15:37.768Z,2.05
2023-03-27T16:18:31.841Z,2.75
2023-03-27T16:21:09.629Z,2.00
2023-03-27T16:23:37.996Z,2.20
2023-03-27T16:26:15.866Z,2.33
2023-03-27T16:28:44.257Z,2.10
2023-03-27T16:31:18.229Z,2.10
2023-03-27T16:33:47.268Z,2.22
2023-03-27T16:36:28.413Z,1.98
2023-03-27T16:38:57.271Z,2.20
2023-03-27T16:41:25.403Z,1.90
2023-03-27T16:43:54.080Z,1.77
2023-03-27T16:46:27.051Z,2.50
2023-03-27T16:48:56.802Z,2.28
2023-03-27T16:51:27.792Z,2.65
2023-03-27T16:53:56.221Z,2.63
2023-03-27T16:56:25.303Z,2.80
2023-03-27T16:58:53.552Z,3.00
2023-03-27T17:01:24.103Z,3.10
2023-03-27T17:03:53.110Z,2.83
2023-03-27T17:06:22.909Z,2.38
2023-03-27T17:08:55.756Z,2.33
2023-03-27T17:11:23.969Z,2.03
2023-03-27T17:13:52.903Z,3.95
2023-03-27T17:16:21.530Z,3.70
2023-03-27T17:18:51.968Z,3.28
2023-03-27T17:21:20.290Z,2.63
2023-03-27T17:23:49.095Z,2.08
2023-03-27T17:26:27.810Z,1.58
2023-03-27T17:28:56.949Z,2.15
2023-03-27T17:31:26.839Z,2.10
2023-03-27T17:33:56.030Z,1.40
2023-03-27T17:36:38.768Z,0.90
2023-03-27T17:39:10.458Z,1.42
2023-03-27T17:41:38.598Z,0.85
2023-03-27T17:44:08.032Z,0.60
2023-03-27T17:46:36.569Z,0.73
2023-03-27T17:49:04.825Z,1.05
2023-03-27T17:51:35.693Z,0.70
2023-03-27T17:54:04.845Z,1.25
2023-03-27T17:56:33.909Z,2.17
2023-03-27T17:59:02.851Z,2.25
2023-03-27T18:01:31.694Z,2.13
2023-03-27T18:04:00.797Z,1.70
2023-03-27T18:06:29.578Z,2.78
2023-03-27T18:08:58.330Z,1.55
2023-03-27T18:11:26.872Z,2.80
2023-03-27T18:13:56.025Z,1.88
2023-03-27T18:16:24.037Z,1.10
2023-03-27T18:18:55.205Z,1.60
2023-03-27T18:21:23.738Z,1.67
2023-03-27T18:23:53.865Z,1.13
2023-03-27T18:26:22.600Z,2.90
2023-03-27T18:28:52.475Z,1.50
2023-03-27T18:31:21.233Z,1.60
2023-03-27T18:33:49.257Z,3.25
2023-03-27T18:36:17.603Z,9.00
2023-03-27T18:38:48.351Z,1.92
2023-03-27T18:41:17.996Z,1.70
2023-03-27T18:43:47.152Z,2.13
2023-03-27T18:46:40.968Z,2.30
2023-03-27T18:49:21.476Z,1.92
2023-03-27T18:51:52.363Z,1.63
2023-03-27T18:54:20.897Z,2.55
2023-03-27T18:56:49.064Z,1.85
2023-03-27T18:59:18.268Z,4.30
2023-03-27T19:01:49.242Z,2.40
2023-03-27T19:04:19.252Z,2.30
2023-03-27T19:06:47.437Z,2.45
2023-03-27T19:09:16.102Z,1.90
2023-03-27T19:11:45.169Z,1.73
2023-03-27T19:14:32.043Z,1.90
2023-03-27T19:17:21.293Z,1.90
2023-03-27T19:20:15.738Z,2.05
2023-03-27T19:23:17.653Z,3.92
2023-03-27T19:25:51.436Z,1.67
2023-03-27T19:28:19.638Z,4.72
2023-03-27T19:30:51.800Z,2.95
2023-03-27T19:33:21.860Z,3.00
2023-03-27T19:35:53.797Z,2.10
2023-03-27T19:38:22.786Z,2.08
2023-03-27T19:40:51.383Z,2.92
2023-03-27T19:43:21.701Z,1.70
2023-03-27T19:46:14.347Z,2.08
2023-03-27T19:48:47.538Z,3.60
2023-03-27T19:51:38.539Z,3.53
2023-03-27T19:54:06.984Z,5.40
2023-03-27T19:56:35.886Z,4.40
2023-03-27T19:59:04.745Z,4.28
2023-03-27T20:01:33.626Z,5.88
2023-03-27T20:04:01.859Z,4.10
2023-03-27T20:06:31.227Z,6.68
2023-03-27T20:09:01.145Z,4.85
2023-03-27T20:11:29.410Z,3.30
2023-03-27T20:13:58.020Z,3.70
2023-03-27T20:16:28.103Z,4.50
2023-03-27T20:19:04.034Z,4.82
2023-03-27T20:21:35.172Z,3.17
2023-03-27T20:24:10.040Z,2.88
2023-03-27T20:26:42.710Z,6.43
2023-03-27T20:29:18.438Z,2.47
2023-03-27T20:31:48.478Z,4.30
2023-03-27T20:34:19.628Z,4.18
2023-03-27T20:36:53.374Z,4.50
2023-03-27T20:39:48.356Z,4.68
2023-03-27T20:42:23.235Z,2.75
2023-03-27T20:44:55.188Z,3.28
2023-03-27T20:47:48.671Z,4.47
2023-03-27T20:50:18.015Z,4.13
2023-03-27T20:52:46.100Z,3.85
2023-03-27T20:55:22.899Z,4.63
2023-03-27T20:58:01.275Z,4.30
2023-03-27T21:00:29.288Z,3.70
2023-03-27T21:02:57.226Z,4.47
2023-03-27T21:05:26.627Z,5.50
2023-03-27T21:07:54.733Z,4.78
2023-03-27T21:10:23.117Z,5.15
2023-03-27T21:12:51.413Z,4.97
2023-03-27T21:15:44.196Z,6.40
2023-03-27T21:18:12.539Z,5.13
2023-03-27T21:20:40.898Z,4.90
2023-03-27T21:23:08.977Z,4.10
2023-03-27T21:25:38.419Z,4.10
2023-03-27T21:28:08.205Z,5.20
2023-03-27T21:30:46.801Z,5.28
2023-03-27T21:33:17.029Z,2.28
2023-03-27T21:35:48.625Z,2.53
2023-03-27T21:38:18.239Z,2.58
2023-03-27T21:40:47.461Z,3.03
2023-03-27T21:43:16.685Z,3.50
2023-03-27T21:45:47.077Z,3.05
2023-03-27T21:48:15.439Z,2.78
2023-03-27T21:50:43.904Z,3.60
2023-03-27T21:53:12.195Z,3.75
2023-03-27T21:55:40.394Z,3.72
2023-03-27T21:58:08.551Z,3.55
2023-03-27T22:00:36.979Z,3.53
2023-03-27T22:03:05.011Z,3.13
2023-03-27T22:05:36.881Z,3.53
2023-03-27T22:08:05.819Z,6.50
2023-03-27T22:10:35.871Z,7.47
2023-03-27T22:13:04.066Z,48.40
2023-03-27T22:15:32.586Z,6.93
2023-03-27T22:18:01.406Z,8.77
2023-03-27T22:20:29.445Z,7.20
2023-03-27T22:22:57.690Z,7.07
2023-03-27T22:25:26.067Z,7.57
2023-03-27T22:27:54.144Z,6.38
2023-03-27T22:30:22.136Z,6.53
2023-03-27T22:32:50.132Z,9.32
2023-03-27T22:35:18.320Z,7.72
2023-03-27T22:37:46.360Z,7.68
2023-03-27T22:40:14.376Z,7.55
2023-03-27T22:42:43.004Z,7.55
2023-03-27T22:45:11.577Z,6.93
2023-03-27T22:47:39.992Z,6.85
2023-03-27T22:50:09.022Z,6.95
2023-03-27T22:52:36.955Z,5.93
2023-03-27T22:55:05.508Z,5.00
2023-03-27T22:57:36.435Z,4.88
2023-03-27T23:00:07.064Z,5.38
2023-03-27T23:02:35.577Z,6.07
2023-03-27T23:05:04.413Z,5.60
2023-03-27T23:07:32.385Z,6.63
2023-03-27T23:10:00.656Z,7.70
2023-03-27T23:12:28.691Z,7.32
2023-03-27T23:14:57.110Z,4.93
2023-03-27T23:17:25.151Z,3.90
2023-03-27T23:19:53.340Z,5.78
2023-03-27T23:22:21.527Z,4.13
2023-03-27T23:24:49.683Z,3.30
2023-03-27T23:27:17.878Z,3.80
2023-03-27T23:29:46.029Z,3.47
2023-03-27T23:32:14.259Z,3.53
2023-03-27T23:34:42.666Z,3.53
2023-03-27T23:37:11.023Z,2.90
2023-03-27T23:39:39.025Z,3.10
2023-03-27T23:42:07.095Z,3.10
2023-03-27T23:44:35.379Z,3.22
2023-03-27T23:47:03.485Z,3.53
2023-03-27T23:49:31.664Z,2.90
2023-03-27T23:51:59.691Z,2.30
2023-03-27T23:54:27.873Z,2.78
2023-03-27T23:56:55.891Z,2.45
2023-03-27T23:59:23.827Z,2.40
